Time;durP1;ratioP1;P1;durP2;ratioP2;P2;SDS_P1;SDS_P2;PMS_P1;PMS_P2;Temp;Humidity;BMP_temperature;BMP_pressure;BME280_temperature;BME280_humidity;BME280_pressure;Samples;Min_cycle;Max_cycle;Signal;HPM_P1;HPM_P2
2023/12/17 00:00:48;;;;;;;7.40;5.10;;;9.00;99.90;;;;;;5072112;28;20265;-73
2023/12/17 00:03:13;;;;;;;7.47;4.10;;;8.90;99.90;;;;;;5072506;28;20170;-73
2023/12/17 00:05:39;;;;;;;10.73;5.03;;;9.00;99.90;;;;;;5072482;28;20635;-73
2023/12/17 00:08:04;;;;;;;8.63;5.50;;;8.90;99.90;;;;;;5072347;28;20176;-72
2023/12/17 00:10:30;;;;;;;10.40;5.67;;;8.90;99.90;;;;;;5072137;28;20198;-73
2023/12/17 00:12:56;;;;;;;11.33;5.30;;;8.90;99.90;;;;;;5071025;28;20552;-73
2023/12/17 00:15:21;;;;;;;8.70;4.63;;;9.00;99.90;;;;;;5072295;28;20213;-72
2023/12/17 00:17:47;;;;;;;10.67;5.60;;;8.90;99.90;;;;;;5072274;28;20629;-73
2023/12/17 00:20:13;;;;;;;11.90;5.00;;;8.90;99.90;;;;;;5072045;28;20162;-73
2023/12/17 00:22:39;;;;;;;10.30;5.60;;;8.90;99.90;;;;;;5072124;28;20851;-74
2023/12/17 00:25:05;;;;;;;12.63;5.40;;;9.00;99.90;;;;;;5070985;28;20177;-73
2023/12/17 00:27:30;;;;;;;13.63;5.60;;;9.00;99.90;;;;;;5072043;28;20219;-73
2023/12/17 00:29:56;;;;;;;5.90;5.00;;;9.00;99.90;;;;;;5071789;28;20448;-73
2023/12/17 00:32:21;;;;;;;9.50;6.30;;;8.90;99.90;;;;;;5070651;28;20588;-73
2023/12/17 00:34:47;;;;;;;6.47;5.00;;;8.90;99.90;;;;;;5072085;28;20171;-74
2023/12/17 00:37:12;;;;;;;8.97;5.20;;;8.80;99.90;;;;;;5070739;28;20181;-73
2023/12/17 00:39:38;;;;;;;11.77;5.40;;;8.90;99.90;;;;;;5071602;28;20194;-73
2023/12/17 00:42:04;;;;;;;5.13;4.40;;;8.90;99.90;;;;;;5071910;28;20277;-73
2023/12/17 00:44:29;;;;;;;9.53;5.20;;;8.90;99.90;;;;;;5071899;28;20532;-73
2023/12/17 00:46:55;;;;;;;10.33;5.20;;;8.90;99.90;;;;;;5071923;28;20178;-72
2023/12/17 00:49:20;;;;;;;12.20;5.53;;;8.80;99.90;;;;;;5071621;28;20190;-72
2023/12/17 00:51:46;;;;;;;15.90;4.90;;;8.80;99.90;;;;;;5071860;28;20265;-73
2023/12/17 00:54:11;;;;;;;7.63;5.17;;;8.80;99.90;;;;;;5071715;28;20641;-73
2023/12/17 00:56:37;;;;;;;12.13;6.53;;;8.80;99.90;;;;;;5071861;28;20724;-72
2023/12/17 00:59:02;;;;;;;9.97;5.30;;;8.80;99.90;;;;;;5071631;28;20536;-73
2023/12/17 01:01:28;;;;;;;9.83;5.30;;;8.90;99.90;;;;;;5071637;28;20220;-73
2023/12/17 01:03:53;;;;;;;12.30;4.90;;;8.80;99.90;;;;;;5072665;28;20170;-72
2023/12/17 01:06:19;;;;;;;8.23;5.00;;;8.80;99.90;;;;;;5075749;28;20226;-73
2023/12/17 01:08:44;;;;;;;11.00;5.37;;;8.90;99.90;;;;;;5075814;28;20162;-72
2023/12/17 01:11:10;;;;;;;7.80;5.40;;;8.80;99.90;;;;;;5075587;28;20222;-73
2023/12/17 01:13:35;;;;;;;14.07;5.43;;;8.90;99.90;;;;;;5075654;28;20709;-72
2023/12/17 01:16:01;;;;;;;12.53;5.17;;;8.90;99.90;;;;;;5075729;28;20197;-73
2023/12/17 01:18:26;;;;;;;8.13;4.63;;;8.80;99.90;;;;;;5074404;28;20552;-72
2023/12/17 01:20:52;;;;;;;5.10;3.70;;;8.90;99.90;;;;;;5075397;28;20672;-73
2023/12/17 01:23:17;;;;;;;5.87;4.90;;;8.80;99.90;;;;;;5075537;28;20528;-72
2023/12/17 01:25:43;;;;;;;8.83;3.83;;;8.90;99.90;;;;;;5075546;28;20173;-73
2023/12/17 01:28:08;;;;;;;8.00;5.10;;;8.80;99.90;;;;;;5075419;28;20170;-73
2023/12/17 01:30:34;;;;;;;6.90;4.00;;;8.80;99.90;;;;;;5075129;28;20182;-73
2023/12/17 01:33:00;;;;;;;6.63;3.87;;;8.80;99.90;;;;;;5075297;28;20167;-72
2023/12/17 01:35:25;;;;;;;8.37;3.90;;;8.80;99.90;;;;;;5075364;28;20212;-73
2023/12/17 01:37:51;;;;;;;7.90;3.53;;;8.90;99.90;;;;;;5075285;28;20167;-73
2023/12/17 01:40:16;;;;;;;10.60;4.30;;;8.90;99.90;;;;;;5075166;28;20178;-73
2023/12/17 01:42:42;;;;;;;5.50;3.23;;;8.90;99.90;;;;;;5075018;28;20213;-72
2023/12/17 01:45:08;;;;;;;8.10;4.30;;;8.80;99.90;;;;;;5073973;28;20178;-73
2023/12/17 01:47:34;;;;;;;7.90;3.97;;;8.80;99.90;;;;;;5073897;28;20190;-72
2023/12/17 01:49:59;;;;;;;6.60;4.00;;;8.80;99.90;;;;;;5074756;28;20456;-72
2023/12/17 01:52:25;;;;;;;8.00;3.77;;;8.70;99.90;;;;;;5073625;28;20242;-73
2023/12/17 01:54:50;;;;;;;8.83;4.07;;;8.80;99.90;;;;;;5073570;28;20198;-72
2023/12/17 01:57:16;;;;;;;5.07;3.90;;;8.70;99.90;;;;;;5074880;28;20845;-73
2023/12/17 01:59:42;;;;;;;6.50;3.67;;;8.70;99.90;;;;;;5074753;28;20170;-73
2023/12/17 02:02:10;;;;;;;7.30;4.13;;;8.70;99.90;;;;;;5074753;28;20916;-72
2023/12/17 02:04:36;;;;;;;4.33;3.93;;;8.70;99.90;;;;;;5074732;28;20257;-73
2023/12/17 02:07:02;;;;;;;6.07;3.90;;;8.70;99.90;;;;;;5074813;28;20914;-72
2023/12/17 02:09:27;;;;;;;6.00;4.00;;;8.70;99.90;;;;;;5074483;28;20497;-73
2023/12/17 02:11:53;;;;;;;5.13;3.33;;;8.60;99.90;;;;;;5073198;28;20240;-73
2023/12/17 02:14:18;;;;;;;4.67;3.73;;;8.60;99.90;;;;;;5074941;28;20166;-73
2023/12/17 02:16:44;;;;;;;9.30;3.20;;;8.60;99.90;;;;;;5072438;28;20181;-72
2023/12/17 02:19:09;;;;;;;7.17;3.97;;;8.60;99.90;;;;;;5073154;28;20173;-72
2023/12/17 02:21:35;;;;;;;7.67;3.30;;;8.60;99.90;;;;;;5074468;28;20683;-73
2023/12/17 02:24:00;;;;;;;8.10;4.17;;;8.50;99.90;;;;;;5074285;28;20257;-72
2023/12/17 02:26:26;;;;;;;4.60;3.30;;;8.30;99.90;;;;;;5074382;28;20184;-73
2023/12/17 02:28:51;;;;;;;6.60;3.20;;;8.30;99.90;;;;;;5074249;28;20174;-73
2023/12/17 02:31:17;;;;;;;5.27;3.43;;;8.30;99.90;;;;;;5074028;28;20645;-74
2023/12/17 02:33:42;;;;;;;10.50;3.33;;;8.30;99.90;;;;;;5074016;28;20220;-72
2023/12/17 02:36:08;;;;;;;6.37;3.33;;;8.30;99.90;;;;;;5073016;28;20174;-73
2023/12/17 02:38:34;;;;;;;7.60;3.80;;;8.40;99.90;;;;;;5074235;28;20170;-73
2023/12/17 02:40:59;;;;;;;10.33;4.50;;;8.40;99.90;;;;;;5073890;28;20186;-73
2023/12/17 02:43:25;;;;;;;5.20;3.50;;;8.30;99.90;;;;;;5074080;28;20181;-73
2023/12/17 02:45:50;;;;;;;5.10;3.70;;;8.40;99.90;;;;;;5072679;28;20186;-72
2023/12/17 02:48:16;;;;;;;5.30;3.57;;;8.40;99.90;;;;;;5073997;28;20170;-73
2023/12/17 02:50:41;;;;;;;3.93;3.53;;;8.40;99.90;;;;;;5073749;28;20230;-72
2023/12/17 02:53:07;;;;;;;4.67;3.43;;;8.50;99.90;;;;;;5073532;28;20577;-73
2023/12/17 02:55:32;;;;;;;3.90;3.40;;;8.40;99.90;;;;;;5074016;28;20629;-73
2023/12/17 02:57:58;;;;;;;12.60;4.43;;;8.40;99.90;;;;;;5073834;28;20162;-73
2023/12/17 03:00:23;;;;;;;7.80;3.87;;;8.50;99.90;;;;;;5073687;28;20250;-74
2023/12/17 03:02:50;;;;;;;6.67;3.70;;;8.50;99.90;;;;;;5073614;28;20719;-72
2023/12/17 03:05:15;;;;;;;5.50;3.67;;;8.50;99.90;;;;;;5073452;28;20174;-73
2023/12/17 03:07:41;;;;;;;7.63;3.40;;;8.60;99.90;;;;;;5073523;28;20972;-73
2023/12/17 03:10:07;;;;;;;4.90;3.63;;;8.60;99.90;;;;;;5073411;28;20687;-73
2023/12/17 03:12:32;;;;;;;5.67;3.87;;;8.50;99.90;;;;;;5073398;28;20708;-73
2023/12/17 03:14:58;;;;;;;5.90;3.20;;;8.50;99.90;;;;;;5073495;28;20629;-72
2023/12/17 03:17:23;;;;;;;5.07;4.17;;;8.40;99.90;;;;;;5072268;28;20819;-73
2023/12/17 03:19:49;;;;;;;5.20;3.80;;;8.40;99.90;;;;;;5073315;28;20767;-73
2023/12/17 03:22:14;;;;;;;8.77;4.67;;;8.40;99.90;;;;;;5071994;28;20201;-72
2023/12/17 03:24:40;;;;;;;5.73;2.83;;;8.40;99.90;;;;;;5073308;28;20185;-72
2023/12/17 03:27:05;;;;;;;6.43;3.70;;;8.60;99.90;;;;;;5073257;28;20170;-73
2023/12/17 03:29:31;;;;;;;6.67;3.40;;;8.60;99.90;;;;;;5073023;28;20302;-73
2023/12/17 03:31:57;;;;;;;4.27;2.80;;;8.60;99.90;;;;;;5073085;28;20560;-73
2023/12/17 03:34:23;;;;;;;5.00;3.53;;;8.70;99.90;;;;;;5073142;28;20185;-73
2023/12/17 03:36:49;;;;;;;5.97;3.53;;;8.70;99.90;;;;;;5073030;28;20408;-72
2023/12/17 03:39:14;;;;;;;6.70;3.77;;;8.70;99.90;;;;;;5073292;28;20710;-73
2023/12/17 03:41:40;;;;;;;5.50;3.70;;;8.60;99.90;;;;;;5072890;28;20193;-72
2023/12/17 03:44:05;;;;;;;6.47;4.40;;;8.60;99.90;;;;;;5072827;28;20202;-72
2023/12/17 03:46:31;;;;;;;9.40;3.70;;;8.50;99.90;;;;;;5072966;28;20162;-73
2023/12/17 03:48:56;;;;;;;4.93;3.90;;;8.50;99.90;;;;;;5072714;28;20649;-72
2023/12/17 03:51:22;;;;;;;6.33;3.77;;;8.50;99.90;;;;;;5072609;28;20189;-73
2023/12/17 03:53:47;;;;;;;6.20;3.10;;;8.60;99.90;;;;;;5072502;28;20178;-73
2023/12/17 03:56:15;;;;;;;6.60;3.73;;;8.60;99.90;;;;;;5072644;28;20169;-73
2023/12/17 03:58:40;;;;;;;3.63;3.03;;;8.50;99.90;;;;;;5072701;28;20507;-72
2023/12/17 04:01:07;;;;;;;3.73;3.27;;;8.40;99.90;;;;;;5072372;28;20424;-73
2023/12/17 04:03:33;;;;;;;4.10;3.40;;;8.40;99.90;;;;;;5072593;28;20176;-73
2023/12/17 04:06:01;;;;;;;5.63;2.87;;;8.40;99.90;;;;;;5071234;28;20854;-73
2023/12/17 04:08:27;;;;;;;3.17;2.80;;;8.30;99.90;;;;;;5072413;28;20414;-73
2023/12/17 04:10:52;;;;;;;3.53;2.80;;;8.30;99.90;;;;;;5072138;28;20452;-73
2023/12/17 04:13:18;;;;;;;3.30;2.80;;;8.30;99.90;;;;;;5072350;28;20407;-73
2023/12/17 04:15:44;;;;;;;3.50;2.67;;;8.40;99.90;;;;;;5072378;28;20597;-73
2023/12/17 04:18:09;;;;;;;6.20;2.93;;;8.40;99.90;;;;;;5072228;28;20197;-73
2023/12/17 04:20:35;;;;;;;3.50;2.90;;;8.40;99.90;;;;;;5071923;28;20701;-73
2023/12/17 04:23:00;;;;;;;2.97;2.67;;;8.40;99.90;;;;;;5072179;28;20173;-73
2023/12/17 04:25:26;;;;;;;4.67;3.07;;;8.40;99.90;;;;;;5072166;28;20170;-74
2023/12/17 04:27:51;;;;;;;4.37;3.10;;;8.40;99.90;;;;;;5072209;28;20167;-73
2023/12/17 04:30:17;;;;;;;5.73;3.87;;;8.40;99.90;;;;;;5071966;28;20193;-73
2023/12/17 04:32:43;;;;;;;2.83;2.50;;;8.40;99.90;;;;;;5072033;28;20183;-73
2023/12/17 04:35:08;;;;;;;3.97;2.43;;;8.40;99.90;;;;;;5072227;28;20818;-72
2023/12/17 04:37:34;;;;;;;3.87;2.57;;;8.50;99.90;;;;;;5072091;28;20225;-73
2023/12/17 04:40:00;;;;;;;2.40;1.90;;;8.60;99.90;;;;;;5071397;28;20701;-73
2023/12/17 04:42:26;;;;;;;2.97;2.30;;;8.50;99.90;;;;;;5071854;28;20182;-74
2023/12/17 04:44:52;;;;;;;3.10;2.67;;;8.50;99.90;;;;;;5072014;28;20162;-73
2023/12/17 04:47:17;;;;;;;3.87;2.40;;;8.40;99.90;;;;;;5070730;28;20419;-73
2023/12/17 04:49:43;;;;;;;3.00;2.27;;;8.40;99.90;;;;;;5071681;28;20660;-72
2023/12/17 04:52:08;;;;;;;5.73;2.63;;;8.40;99.90;;;;;;5071864;28;20186;-72
2023/12/17 04:54:34;;;;;;;3.87;2.93;;;8.40;99.90;;;;;;5070362;28;20185;-73
2023/12/17 04:56:59;;;;;;;3.73;2.53;;;8.30;99.90;;;;;;5071746;28;20765;-72
2023/12/17 04:59:25;;;;;;;3.10;2.60;;;8.30;99.90;;;;;;5071712;28;20175;-73
2023/12/17 05:01:51;;;;;;;3.67;2.73;;;8.30;99.90;;;;;;5071762;28;20182;-72
2023/12/17 05:04:16;;;;;;;2.57;2.37;;;8.30;99.90;;;;;;5070508;28;20566;-73
2023/12/17 05:06:42;;;;;;;4.80;2.80;;;8.30;99.90;;;;;;5071708;28;20208;-73
2023/12/17 05:09:08;;;;;;;4.37;3.07;;;8.30;99.90;;;;;;5071470;28;20245;-74
2023/12/17 05:11:34;;;;;;;3.30;2.40;;;8.30;99.90;;;;;;5071635;28;20466;-74
2023/12/17 05:14:00;;;;;;;3.07;2.77;;;8.30;99.90;;;;;;5071635;28;20397;-72
2023/12/17 05:16:25;;;;;;;3.10;2.80;;;8.40;99.90;;;;;;5071699;28;20169;-73
2023/12/17 05:18:51;;;;;;;3.90;2.10;;;8.40;99.90;;;;;;5071723;28;20643;-72
2023/12/17 05:21:17;;;;;;;5.60;3.10;;;8.30;99.90;;;;;;5071385;28;20420;-73
2023/12/17 05:23:43;;;;;;;3.53;2.70;;;8.30;99.90;;;;;;5071517;28;20170;-73
2023/12/17 05:26:08;;;;;;;3.60;2.43;;;8.30;99.90;;;;;;5071558;28;20553;-74
2023/12/17 05:28:34;;;;;;;2.43;2.17;;;8.30;99.90;;;;;;5070106;28;20408;-73
2023/12/17 05:31:00;;;;;;;4.43;3.07;;;8.20;99.90;;;;;;5071289;28;20858;-72
2023/12/17 05:33:25;;;;;;;3.90;2.47;;;8.30;99.90;;;;;;5071439;28;20182;-73
2023/12/17 05:35:51;;;;;;;2.50;2.30;;;8.30;99.90;;;;;;5071512;28;20163;-73
2023/12/17 05:38:17;;;;;;;5.10;3.13;;;8.20;99.90;;;;;;5071451;28;20158;-73
2023/12/17 05:40:42;;;;;;;4.70;3.57;;;8.10;99.90;;;;;;5071173;28;20406;-74
2023/12/17 05:43:08;;;;;;;3.63;2.70;;;8.10;99.90;;;;;;5071349;28;20163;-73
2023/12/17 05:45:34;;;;;;;4.10;3.23;;;8.10;99.90;;;;;;5070110;28;20205;-73
2023/12/17 05:47:59;;;;;;;6.83;3.47;;;8.10;99.90;;;;;;5071300;28;20592;-73
2023/12/17 05:50:25;;;;;;;3.97;2.67;;;8.00;99.90;;;;;;5071212;28;20198;-74
2023/12/17 05:52:50;;;;;;;2.90;2.07;;;8.00;99.90;;;;;;5074749;28;20265;-73
2023/12/17 05:55:16;;;;;;;2.80;2.20;;;8.00;99.90;;;;;;5073805;28;20166;-73
2023/12/17 05:57:43;;;;;;;2.80;2.33;;;8.00;99.90;;;;;;5075112;28;20170;-73
2023/12/17 06:00:10;;;;;;;2.03;1.57;;;8.00;99.90;;;;;;5075051;28;20162;-73
2023/12/17 06:02:36;;;;;;;2.37;1.77;;;8.00;99.90;;;;;;5073471;28;20473;-72
2023/12/17 06:05:02;;;;;;;2.73;1.80;;;8.00;99.90;;;;;;5074840;28;20408;-72
2023/12/17 06:07:27;;;;;;;3.50;2.20;;;8.10;99.90;;;;;;5074822;28;20204;-73
2023/12/17 06:09:53;;;;;;;2.43;1.70;;;8.10;99.90;;;;;;5074404;28;20463;-74
2023/12/17 06:12:19;;;;;;;2.77;2.20;;;8.20;99.90;;;;;;5073520;28;20665;-73
2023/12/17 06:14:44;;;;;;;2.63;1.70;;;8.20;99.90;;;;;;5074788;28;20396;-73
2023/12/17 06:17:10;;;;;;;2.97;2.43;;;8.30;99.90;;;;;;5074592;28;20166;-73
2023/12/17 06:19:37;;;;;;;4.60;3.20;;;8.20;99.90;;;;;;5074466;28;20175;-72
2023/12/17 06:22:03;;;;;;;3.53;1.93;;;8.30;99.90;;;;;;5073154;28;20436;-72
2023/12/17 06:24:28;;;;;;;1.40;1.30;;;8.30;99.90;;;;;;5074567;28;20982;-72
2023/12/17 06:26:55;;;;;;;2.20;1.70;;;8.40;99.90;;;;;;5073210;28;20546;-72
2023/12/17 06:29:20;;;;;;;1.37;1.27;;;8.40;99.90;;;;;;5074221;28;20653;-70
2023/12/17 06:31:46;;;;;;;1.50;1.40;;;8.50;99.90;;;;;;5073057;28;20431;-71
2023/12/17 06:34:11;;;;;;;1.47;1.30;;;8.50;99.90;;;;;;5074340;28;20181;-71
2023/12/17 06:36:37;;;;;;;2.07;1.33;;;8.50;99.90;;;;;;5074278;28;20625;-70
2023/12/17 06:39:03;;;;;;;2.90;2.40;;;8.40;99.90;;;;;;5074225;28;20557;-70
2023/12/17 06:41:28;;;;;;;2.23;1.90;;;8.40;99.90;;;;;;5072735;28;20218;-71
2023/12/17 06:43:54;;;;;;;3.00;1.83;;;8.40;99.90;;;;;;5074235;28;20184;-73
2023/12/17 06:46:19;;;;;;;2.77;1.87;;;8.50;99.90;;;;;;5074160;28;20186;-73
2023/12/17 06:48:48;;;;;;;2.17;1.60;;;8.60;99.90;;;;;;5074095;28;20166;-72
2023/12/17 06:51:13;;;;;;;4.03;2.50;;;8.50;99.90;;;;;;5073645;28;20198;-72
2023/12/17 06:53:39;;;;;;;3.27;2.60;;;8.50;99.90;;;;;;5072569;28;20959;-72
2023/12/17 06:56:05;;;;;;;2.03;1.80;;;8.30;99.90;;;;;;5073990;28;20178;-73
2023/12/17 06:58:31;;;;;;;2.17;1.57;;;8.40;99.90;;;;;;5074067;28;20162;-72
2023/12/17 07:00:57;;;;;;;3.07;2.17;;;8.40;99.90;;;;;;5072182;28;20435;-72
2023/12/17 07:03:24;;;;;;;2.60;2.10;;;8.40;99.90;;;;;;5072119;28;20857;-72
2023/12/17 07:05:49;;;;;;;2.70;2.37;;;8.50;99.90;;;;;;5072413;28;20555;-72
2023/12/17 07:08:15;;;;;;;2.40;1.77;;;8.50;99.90;;;;;;5073646;28;20427;-73
2023/12/17 07:10:41;;;;;;;2.20;1.90;;;8.60;99.90;;;;;;5073355;28;20220;-73
2023/12/17 07:13:06;;;;;;;2.33;2.00;;;8.60;99.90;;;;;;5073561;28;20220;-73
2023/12/17 07:15:32;;;;;;;3.17;1.87;;;8.60;99.90;;;;;;5073580;28;20245;-73
2023/12/17 07:17:57;;;;;;;6.50;3.23;;;8.60;99.90;;;;;;5072262;28;20170;-73
2023/12/17 07:20:23;;;;;;;9.43;7.00;;;8.60;99.90;;;;;;5073295;28;20177;-73
2023/12/17 07:22:48;;;;;;;3.77;2.10;;;8.70;99.90;;;;;;5073402;28;20190;-73
2023/12/17 07:25:17;;;;;;;2.47;2.13;;;8.60;99.90;;;;;;5073433;28;20183;-73
2023/12/17 07:27:43;;;;;;;3.40;2.50;;;8.70;99.90;;;;;;5073302;28;20166;-72
2023/12/17 07:30:09;;;;;;;2.37;2.17;;;8.80;99.90;;;;;;5073094;28;20610;-73
2023/12/17 07:32:34;;;;;;;3.30;2.53;;;8.80;99.90;;;;;;5071843;28;20219;-75
2023/12/17 07:35:00;;;;;;;3.20;1.90;;;8.90;99.90;;;;;;5072884;28;20400;-72
2023/12/17 07:37:25;;;;;;;2.90;2.47;;;8.90;99.90;;;;;;5072174;28;20731;-72
2023/12/17 07:39:51;;;;;;;2.93;2.63;;;9.00;99.90;;;;;;5072938;28;20174;-73
2023/12/17 07:42:16;;;;;;;3.40;2.53;;;9.00;99.90;;;;;;5072846;28;20323;-72
2023/12/17 07:44:42;;;;;;;3.43;2.83;;;9.10;99.90;;;;;;5073066;28;20665;-72
2023/12/17 07:47:10;;;;;;;2.83;2.53;;;9.10;99.90;;;;;;5072990;28;20181;-73
2023/12/17 07:49:39;;;;;;;19.53;13.10;;;9.10;99.90;;;;;;5071411;28;20463;-73
2023/12/17 07:52:04;;;;;;;7.97;7.00;;;9.20;99.90;;;;;;5072870;28;21001;-73
2023/12/17 07:54:30;;;;;;;4.03;3.63;;;9.20;99.90;;;;;;5072644;28;20511;-72
2023/12/17 07:56:55;;;;;;;3.87;2.70;;;9.20;99.90;;;;;;5072522;28;20177;-72
2023/12/17 07:59:21;;;;;;;3.90;2.73;;;9.20;99.90;;;;;;5072474;28;20170;-73
2023/12/17 08:01:46;;;;;;;4.60;3.87;;;9.20;99.90;;;;;;5072423;28;20202;-72
2023/12/17 08:04:13;;;;;;;3.47;2.70;;;9.20;99.90;;;;;;5072511;28;20166;-72
2023/12/17 08:06:38;;;;;;;4.10;3.03;;;9.30;99.90;;;;;;5072604;28;20514;-72
2023/12/17 08:09:04;;;;;;;3.93;3.00;;;9.20;99.90;;;;;;5072420;28;20469;-73
2023/12/17 08:11:30;;;;;;;4.40;2.60;;;9.20;99.90;;;;;;5072132;28;20277;-73
2023/12/17 08:13:55;;;;;;;14.50;10.27;;;9.30;99.90;;;;;;5071558;28;20243;-73
2023/12/17 08:16:21;;;;;;;13.43;7.37;;;9.30;99.90;;;;;;5072314;28;20583;-72
2023/12/17 08:18:46;;;;;;;8.70;4.70;;;9.40;99.90;;;;;;5072202;28;20166;-72
2023/12/17 08:21:12;;;;;;;5.40;3.60;;;9.40;99.90;;;;;;5071885;28;20190;-72
2023/12/17 08:23:37;;;;;;;5.53;3.17;;;9.40;99.90;;;;;;5072026;28;20174;-74
2023/12/17 08:26:03;;;;;;;4.70;2.90;;;9.40;99.90;;;;;;5072103;28;20174;-73
2023/12/17 08:28:28;;;;;;;4.20;2.90;;;9.50;99.90;;;;;;5072026;28;20241;-73
2023/12/17 08:30:54;;;;;;;4.33;3.20;;;9.60;99.90;;;;;;5071614;28;20209;-73
2023/12/17 08:33:19;;;;;;;10.90;3.80;;;9.70;99.90;;;;;;5071636;28;20227;-73
2023/12/17 08:35:45;;;;;;;2.70;2.43;;;9.70;99.90;;;;;;5071933;28;20208;-73
2023/12/17 08:38:11;;;;;;;3.10;2.30;;;9.60;99.90;;;;;;5071942;28;20172;-73
2023/12/17 08:40:39;;;;;;;3.70;2.80;;;9.60;99.90;;;;;;5071637;28;20412;-72
2023/12/17 08:43:09;;;;;;;3.37;3.00;;;9.60;99.90;;;;;;5070443;28;20421;-73
2023/12/17 08:45:35;;;;;;;3.70;2.93;;;9.60;99.90;;;;;;5070623;28;21004;-72
2023/12/17 08:48:01;;;;;;;3.57;2.50;;;9.50;99.90;;;;;;5071829;28;20408;-73
2023/12/17 08:50:27;;;;;;;4.30;3.40;;;9.60;99.90;;;;;;5071504;28;20198;-73
2023/12/17 08:52:53;;;;;;;3.37;2.70;;;9.50;99.90;;;;;;5071527;28;20436;-73
2023/12/17 08:55:22;;;;;;;3.20;2.77;;;9.50;99.90;;;;;;5071859;28;20408;-72
2023/12/17 08:57:47;;;;;;;3.97;3.33;;;9.50;99.90;;;;;;5070477;28;20256;-73
2023/12/17 09:00:16;;;;;;;3.63;3.17;;;9.50;99.90;;;;;;5071600;28;20928;-73
2023/12/17 09:02:41;;;;;;;3.10;2.37;;;9.40;99.90;;;;;;5070941;28;20582;-69
2023/12/17 09:05:07;;;;;;;3.20;2.90;;;9.50;99.90;;;;;;5071736;28;20549;-70
2023/12/17 09:07:33;;;;;;;6.20;3.20;;;9.50;99.90;;;;;;5071698;28;20300;-70
2023/12/17 09:09:58;;;;;;;4.20;2.63;;;9.40;99.90;;;;;;5071490;28;20534;-71
2023/12/17 09:12:24;;;;;;;3.00;2.70;;;9.40;99.90;;;;;;5071533;28;20212;-71
2023/12/17 09:14:50;;;;;;;3.70;2.70;;;9.40;99.90;;;;;;5071715;28;20173;-70
2023/12/17 09:17:15;;;;;;;5.30;3.53;;;9.50;99.90;;;;;;5071699;28;20240;-70
2023/12/17 09:19:41;;;;;;;4.13;3.00;;;9.50;99.90;;;;;;5071299;28;20311;-70
2023/12/17 09:22:07;;;;;;;3.20;2.90;;;9.40;99.90;;;;;;5071571;28;20188;-71
2023/12/17 09:24:32;;;;;;;3.70;3.23;;;9.50;99.90;;;;;;5070685;28;20232;-70
2023/12/17 09:26:59;;;;;;;3.83;3.47;;;9.50;99.90;;;;;;5075820;28;20218;-70
2023/12/17 09:29:24;;;;;;;3.00;2.70;;;9.60;99.90;;;;;;5075235;28;20197;-71
2023/12/17 09:31:50;;;;;;;4.73;3.20;;;9.50;99.90;;;;;;5075409;28;20420;-70
2023/12/17 09:34:16;;;;;;;4.23;3.10;;;9.60;99.90;;;;;;5074123;28;20189;-70
2023/12/17 09:36:42;;;;;;;4.77;3.37;;;9.70;99.90;;;;;;5075471;28;20397;-70
2023/12/17 09:39:08;;;;;;;3.90;3.17;;;9.70;99.90;;;;;;5075258;28;20197;-70
2023/12/17 09:41:33;;;;;;;5.77;3.80;;;9.80;99.90;;;;;;5075300;28;20595;-70
2023/12/17 09:43:59;;;;;;;6.53;4.07;;;9.70;99.90;;;;;;5075219;28;20567;-71
2023/12/17 09:46:25;;;;;;;4.03;3.73;;;9.80;99.90;;;;;;5075167;28;20221;-72
2023/12/17 09:48:50;;;;;;;5.53;4.07;;;9.90;99.90;;;;;;5075198;28;20445;-70
2023/12/17 09:51:17;;;;;;;4.17;3.77;;;10.00;99.90;;;;;;5074805;28;20202;-70
2023/12/17 09:53:43;;;;;;;6.57;4.17;;;10.00;99.90;;;;;;5074902;28;20729;-70
2023/12/17 09:56:10;;;;;;;7.27;4.87;;;10.10;99.90;;;;;;5075066;28;20428;-70
2023/12/17 09:58:36;;;;;;;7.20;4.30;;;10.20;99.90;;;;;;5074975;28;20163;-70
2023/12/17 10:01:01;;;;;;;5.70;3.80;;;10.20;99.90;;;;;;5074694;28;20424;-70
2023/12/17 10:03:27;;;;;;;5.30;3.80;;;10.30;99.90;;;;;;5074780;28;20537;-70
2023/12/17 10:05:53;;;;;;;5.80;3.90;;;10.30;99.90;;;;;;5075006;28;20551;-70
2023/12/17 10:08:20;;;;;;;4.07;3.13;;;10.40;99.90;;;;;;5074503;28;20499;-72
2023/12/17 10:10:46;;;;;;;4.57;3.30;;;10.50;99.90;;;;;;5074472;28;20259;-71
2023/12/17 10:13:21;;;;;;;5.30;3.80;;;10.50;99.90;;;;;;5074633;28;20408;-72
2023/12/17 10:15:52;;;;;;;4.27;3.30;;;10.60;99.90;;;;;;5074568;28;20396;-70
2023/12/17 10:18:18;;;;;;;4.27;3.27;;;10.50;99.90;;;;;;5074598;28;20412;-71
2023/12/17 10:20:45;;;;;;;3.53;3.20;;;10.60;99.90;;;;;;5074338;28;20412;-70
2023/12/17 10:23:12;;;;;;;4.43;3.30;;;10.60;99.90;;;;;;5074500;28;20404;-70
2023/12/17 10:25:38;;;;;;;3.93;2.87;;;10.70;99.90;;;;;;5074224;28;20412;-70
2023/12/17 10:28:04;;;;;;;3.33;3.03;;;10.70;99.90;;;;;;5074486;28;20408;-71
2023/12/17 10:30:32;;;;;;;3.90;2.90;;;10.90;99.90;;;;;;5073942;28;20452;-72
2023/12/17 10:32:59;;;;;;;3.93;3.30;;;10.90;99.90;;;;;;5074242;28;20412;-70
2023/12/17 10:35:25;;;;;;;2.90;2.60;;;11.00;99.90;;;;;;5074358;28;20427;-71
2023/12/17 10:37:59;;;;;;;2.93;2.37;;;11.10;99.90;;;;;;5073547;28;20408;-70
2023/12/17 10:40:25;;;;;;;3.30;3.00;;;11.10;99.90;;;;;;5074067;28;20424;-70
2023/12/17 10:42:53;;;;;;;3.97;3.53;;;11.10;99.90;;;;;;5073934;28;20792;-71
2023/12/17 10:45:20;;;;;;;3.40;2.83;;;11.00;99.90;;;;;;5074375;28;20412;-70
2023/12/17 10:47:52;;;;;;;4.70;3.00;;;11.10;99.90;;;;;;5074106;28;20408;-70
2023/12/17 10:50:19;;;;;;;3.40;3.07;;;11.20;99.90;;;;;;5073863;28;20458;-71
2023/12/17 10:52:49;;;;;;;3.00;2.70;;;11.10;99.90;;;;;;5073770;28;20490;-70
2023/12/17 10:55:16;;;;;;;4.20;3.50;;;11.40;99.90;;;;;;5073980;28;20429;-71
2023/12/17 10:58:05;;;;;;;3.50;3.20;;;11.50;99.90;;;;;;5074009;28;20413;-70
2023/12/17 11:00:33;;;;;;;3.40;2.93;;;12.00;99.90;;;;;;5073670;28;20400;-70
2023/12/17 11:03:02;;;;;;;3.30;3.03;;;12.60;99.90;;;;;;5073742;28;20409;-71
2023/12/17 11:05:28;;;;;;;4.37;3.97;;;12.90;99.90;;;;;;5073846;28;20443;-70
2023/12/17 11:07:53;;;;;;;5.67;4.13;;;13.60;99.90;;;;;;5073620;28;20603;-71
2023/12/17 11:10:19;;;;;;;3.27;2.80;;;14.30;99.90;;;;;;5073482;28;20205;-71
2023/12/17 11:12:45;;;;;;;4.17;2.60;;;14.80;99.90;;;;;;5073520;28;20178;-69
2023/12/17 11:15:14;;;;;;;3.87;2.80;;;15.10;99.90;;;;;;5073218;28;20633;-70
2023/12/17 11:17:40;;;;;;;2.40;2.20;;;15.40;99.90;;;;;;5073504;28;20401;-70
2023/12/17 11:20:06;;;;;;;2.77;2.57;;;16.00;99.90;;;;;;5069497;28;20424;-69
2023/12/17 11:22:36;;;;;;;3.23;2.03;;;17.00;99.90;;;;;;5063150;28;20440;-69
2023/12/17 11:25:04;;;;;;;2.30;2.10;;;19.30;99.90;;;;;;5068548;28;20438;-70
2023/12/17 11:27:31;;;;;;;1.83;1.73;;;21.60;99.90;;;;;;5073255;28;20495;-70
2023/12/17 11:29:57;;;;;;;2.50;2.30;;;24.00;96.70;;;;;;5071377;28;20467;-72
2023/12/17 11:32:26;;;;;;;2.10;2.00;;;25.70;84.90;;;;;;5073059;28;20919;-69
2023/12/17 11:34:53;;;;;;;2.33;2.13;;;27.00;68.60;;;;;;5073112;28;20163;-70
2023/12/17 11:37:21;;;;;;;2.93;2.63;;;27.50;60.30;;;;;;5073143;28;20763;-70
2023/12/17 11:39:51;;;;;;;2.10;2.00;;;28.30;56.60;;;;;;5072880;28;20956;-71
2023/12/17 11:42:18;;;;;;;2.83;2.63;;;29.10;54.30;;;;;;5072915;28;20436;-70
2023/12/17 11:44:45;;;;;;;3.07;2.87;;;29.80;51.00;;;;;;5073009;28;20408;-70
2023/12/17 11:47:14;;;;;;;3.33;3.10;;;30.20;45.10;;;;;;5072883;28;20404;-71
2023/12/17 11:49:40;;;;;;;3.10;2.90;;;29.70;41.90;;;;;;5071551;28;20467;-70
2023/12/17 11:52:14;;;;;;;3.30;3.10;;;30.00;42.00;;;;;;5072729;28;20911;-70
2023/12/17 11:54:41;;;;;;;3.90;3.50;;;30.50;41.90;;;;;;5072686;28;20190;-71
2023/12/17 11:57:20;;;;;;;2.97;2.77;;;30.90;40.60;;;;;;5072731;28;20408;-71
2023/12/17 11:59:46;;;;;;;3.23;3.03;;;31.20;40.50;;;;;;5072439;28;20829;-70
2023/12/17 12:02:15;;;;;;;3.07;2.80;;;31.30;39.10;;;;;;5072503;28;20452;-70
2023/12/17 12:04:41;;;;;;;4.93;3.87;;;31.60;39.30;;;;;;5072597;28;20634;-69
2023/12/17 12:07:08;;;;;;;4.63;4.23;;;30.80;35.20;;;;;;5071341;28;20435;-70
2023/12/17 12:09:33;;;;;;;4.43;4.07;;;30.20;35.00;;;;;;5071043;28;20197;-70
2023/12/17 12:11:59;;;;;;;9.10;3.80;;;30.10;36.50;;;;;;5072456;28;20478;-70
2023/12/17 12:14:25;;;;;;;3.80;3.50;;;29.00;34.60;;;;;;5072242;28;20496;-70
2023/12/17 12:16:52;;;;;;;4.20;3.80;;;28.70;36.00;;;;;;5072444;28;20265;-70
2023/12/17 12:19:18;;;;;;;3.67;3.37;;;29.00;37.60;;;;;;5072418;28;20908;-71
2023/12/17 12:21:48;;;;;;;3.80;3.50;;;29.30;36.60;;;;;;5072442;28;20447;-71
2023/12/17 12:24:19;;;;;;;3.20;3.00;;;29.20;36.30;;;;;;5072166;28;20404;-71
2023/12/17 12:26:45;;;;;;;3.73;3.17;;;29.90;37.90;;;;;;5072208;28;20923;-69
2023/12/17 12:29:12;;;;;;;4.23;3.93;;;30.50;37.40;;;;;;5070563;28;20409;-69
2023/12/17 12:31:38;;;;;;;3.40;3.10;;;31.30;37.20;;;;;;5072080;28;20233;-70
2023/12/17 12:34:04;;;;;;;3.30;3.00;;;32.00;36.40;;;;;;5072095;28;20409;-72
2023/12/17 12:36:46;;;;;;;4.03;3.30;;;32.40;34.30;;;;;;5072059;28;20397;-70
2023/12/17 12:39:13;;;;;;;2.80;2.60;;;32.60;33.00;;;;;;5071805;28;20405;-71
2023/12/17 12:41:48;;;;;;;3.43;2.83;;;32.80;33.30;;;;;;5071797;28;20443;-71
2023/12/17 12:44:16;;;;;;;2.30;2.10;;;33.00;34.30;;;;;;5070732;28;20443;-71
2023/12/17 12:46:47;;;;;;;4.67;3.30;;;33.40;34.20;;;;;;5071875;28;20447;-70